Map

Track Data

SID SEASON NUMBER BASIN SUBBASIN NAME ISO_TIME NATURE LAT LON WMO_WIND WMO_PRES WMO_AGENCY TRACK_TYPE DIST2LAND LANDFALL IFLAG USA_AGENCY USA_ATCF_ID USA_LAT USA_LON USA_RECORD USA_STATUS USA_WIND USA_PRES USA_SSHS USA_R34_NE USA_R34_SE USA_R34_SW USA_R34_NW USA_R50_NE USA_R50_SE USA_R50_SW USA_R50_NW USA_R64_NE USA_R64_SE USA_R64_SW USA_R64_NW USA_POCI USA_ROCI USA_RMW USA_EYE TOKYO_LAT TOKYO_LON TOKYO_GRADE TOKYO_WIND TOKYO_PRES TOKYO_R50_DIR TOKYO_R50_LONG TOKYO_R50_SHORT TOKYO_R30_DIR TOKYO_R30_LONG TOKYO_R30_SHORT TOKYO_LAND CMA_LAT CMA_LON CMA_CAT CMA_WIND CMA_PRES HKO_LAT HKO_LON HKO_CAT HKO_WIND HKO_PRES NEWDELHI_LAT NEWDELHI_LON NEWDELHI_GRADE NEWDELHI_WIND NEWDELHI_PRES NEWDELHI_CI NEWDELHI_DP NEWDELHI_POCI REUNION_LAT REUNION_LON REUNION_TYPE REUNION_WIND REUNION_PRES REUNION_TNUM REUNION_CI REUNION_RMW REUNION_R34_NE REUNION_R34_SE REUNION_R34_SW REUNION_R34_NW REUNION_R50_NE REUNION_R50_SE REUNION_R50_SW REUNION_R50_NW REUNION_R64_NE REUNION_R64_SE REUNION_R64_SW REUNION_R64_NW BOM_LAT BOM_LON BOM_TYPE BOM_WIND BOM_PRES BOM_TNUM BOM_CI BOM_RMW BOM_R34_NE BOM_R34_SE BOM_R34_SW BOM_R34_NW BOM_R50_NE BOM_R50_SE BOM_R50_SW BOM_R50_NW BOM_R64_NE BOM_R64_SE BOM_R64_SW BOM_R64_NW BOM_ROCI BOM_POCI BOM_EYE BOM_POS_METHOD BOM_PRES_METHOD NADI_LAT NADI_LON NADI_CAT NADI_WIND NADI_PRES WELLINGTON_LAT WELLINGTON_LON WELLINGTON_WIND WELLINGTON_PRES DS824_LAT DS824_LON DS824_STAGE DS824_WIND DS824_PRES TD9636_LAT TD9636_LON TD9636_STAGE TD9636_WIND TD9636_PRES TD9635_LAT TD9635_LON TD9635_WIND TD9635_PRES TD9635_ROCI NEUMANN_LAT NEUMANN_LON NEUMANN_CLASS NEUMANN_WIND NEUMANN_PRES MLC_LAT MLC_LON MLC_CLASS MLC_WIND MLC_PRES USA_GUST BOM_GUST BOM_GUST_PER REUNION_GUST REUNION_GUST_PER USA_SEAHGT USA_SEARAD_NE USA_SEARAD_SE USA_SEARAD_SW USA_SEARAD_NW STORM_SPEED STORM_DIR
1948176N20089 1948 40 NI BB NOT_NAMED 1948-06-23 18:00:00 TS 20.5000 89.1000 main 123 111 O________O____ jtwc_io IO041948 20.5000 89.1000 -1 20.5000 89.1000 TC 2 340
1948176N20089 1948 40 NI BB NOT_NAMED 1948-06-23 21:00:00 TS 20.6050 89.0600 main 111 100 P________P____ IO041948 20.6050 89.0600 -1 20.6050 89.0600 TC 2 333
1948176N20089 1948 40 NI BB NOT_NAMED 1948-06-24 00:00:00 TS 20.7000 89.0000 main 100 89 O________O____ jtwc_io IO041948 20.7000 89.0000 -1 20.7000 89.0000 TC 25 2 322
1948176N20089 1948 40 NI BB NOT_NAMED 1948-06-24 03:00:00 TS 20.7867 88.9066 main 89 78 P________PO___ IO041948 20.7850 88.9075 -1 20.7850 88.9075 TC 25 20.8000 88.9000 1 3 318
1948176N20089 1948 40 NI BB NOT_NAMED 1948-06-24 06:00:00 TS 20.9150 88.7967 main 78 59 O________OP___ jtwc_io IO041948 20.9000 88.8000 -1 20.9000 88.8000 TC 25 20.9751 88.7833 1 4 328
1948176N20089 1948 40 NI BB NOT_NAMED 1948-06-24 09:00:00 TS 21.1110 88.6927 main 59 35 P________PP___ IO041948 21.1000 88.7000 -1 21.1000 88.7000 TC 25 21.1402 88.6731 1 4 334
1948176N20089 1948 40 NI BB NOT_NAMED 1948-06-24 12:00:00 TS 21.2950 88.5921 main 35 22 O________OP___ jtwc_io IO041948 21.3000 88.6000 -1 21.3000 88.6000 TC 25 21.2851 88.5764 1 4 328
1948176N20089 1948 40 NI BB NOT_NAMED 1948-06-24 15:00:00 TS 21.4100 88.4950 main 22 11 P________PO___ IO041948 21.4150 88.4925 -1 21.4150 88.4925 TC 25 21.4000 88.5000 1 3 321
1948176N20089 1948 40 NI BB NOT_NAMED 1948-06-24 18:00:00 TS 21.4939 88.4152 main 11 0 O________OP___ jtwc_io IO041948 21.5000 88.4000 -1 21.5000 88.4000 TC 25 21.4817 88.4457 1 2 326
1948176N20089 1948 40 NI BB NOT_NAMED 1948-06-24 21:00:00 TS 21.5799 88.3697 main 0 0 P________PP___ IO041948 21.5925 88.3574 -1 21.5925 88.3574 TC 25 21.5547 88.3941 1 2 333
1948176N20089 1948 40 NI BB NOT_NAMED 1948-06-25 00:00:00 TS 21.6835 88.3068 main 0 0 O________OP___ jtwc_io IO041948 21.7000 88.3000 -1 21.7000 88.3000 TC 25 21.6504 88.3205 1 3 324
1948176N20089 1948 40 NI BB NOT_NAMED 1948-06-25 03:00:00 TS 21.8083 88.1866 main 0 0 P________PO___ IO041948 21.8125 88.1798 -1 21.8125 88.1798 TC 25 21.8000 88.2000 1 4 320
1948176N20089 1948 40 NI BB NOT_NAMED 1948-06-25 06:00:00 TS 22.0182 88.0056 main 0 0 O________OP___ jtwc_io IO041948 22.0000 88.0000 -1 22.0000 88.0000 TC 25 22.0547 88.0169 1 7 325
1948176N20089 1948 40 NI BB NOT_NAMED 1948-06-25 09:00:00 TS 22.3391 87.7810 main 0 0 P________PP___ IO041948 22.3274 87.7800 -1 22.3274 87.7800 TC 25 22.3624 87.7829 1 8 326
1948176N20089 1948 40 NI BB NOT_NAMED 1948-06-25 12:00:00 TS 22.6963 87.5025 main 0 0 O________OP___ jtwc_io IO041948 22.7000 87.5000 -1 22.7000 87.5000 TC 25 22.6889 87.5074 1 9 320
1948176N20089 1948 40 NI BB NOT_NAMED 1948-06-25 15:00:00 TS 23.0100 87.1766 main 0 0 P________PO___ IO041948 23.0150 87.1650 -1 23.0150 87.1650 TC 25 23.0000 87.2000 1 9 313
1948176N20089 1948 40 NI BB NOT_NAMED 1948-06-25 18:00:00 TS 23.2932 86.8142 main 0 0 O________OP___ jtwc_io IO041948 23.3000 86.8000 -1 23.3000 86.8000 TC 25 23.2796 86.8427 1 9 310
1948176N20089 1948 40 NI BB NOT_NAMED 1948-06-25 21:00:00 TS 23.5694 86.4445 main 0 0 P________PP___ IO041948 23.5875 86.4351 -1 23.5875 86.4351 TC 25 23.5332 86.4633 1 8 307
1948176N20089 1948 40 NI BB NOT_NAMED 1948-06-26 00:00:00 TS 23.7817 86.1007 main 0 0 O________OP___ jtwc_io IO041948 23.8000 86.1000 -1 23.8000 86.1000 TC 25 23.7452 86.1021 1 7 299
1948176N20089 1948 40 NI BB NOT_NAMED 1948-06-26 03:00:00 TS 23.8866 85.8082 main 0 0 P________PO___ IO041948 23.8800 85.8123 -1 23.8800 85.8123 TC 25 23.9000 85.8000 1 5 288
1948176N20089 1948 40 NI BB NOT_NAMED 1948-06-26 06:00:00 TS 23.9273 85.6018 main 0 0 O________OP___ jtwc_io IO041948 23.9000 85.6000 -1 23.9000 85.6000 TC 25 23.9820 85.6055 1 3 286
1948176N20089 1948 40 NI BB NOT_NAMED 1948-06-26 09:00:00 TS 23.9748 85.4764 main 0 0 P________PP___ IO041948 23.9574 85.4775 -1 23.9574 85.4775 TC 25 24.0094 85.4742 1 2 291
1948176N20089 1948 40 NI BB NOT_NAMED 1948-06-26 12:00:00 TS 24.0024 85.3936 main 0 0 O________OP___ jtwc_io IO041948 24.0000 85.4000 -1 24.0000 85.4000 TC 25 24.0072 85.3808 1 2 279
1948176N20089 1948 40 NI BB NOT_NAMED 1948-06-26 15:00:00 TS 24.0000 85.3000 main 0 0 P________PO___ IO041948 24.0000 85.3000 -1 24.0000 85.3000 TC 25 24.0000 85.3000 1 2 270
1948176N20089 1948 40 NI BB NOT_NAMED 1948-06-26 18:00:00 TS 24.0031 85.2045 main 0 0 O________OP___ jtwc_io IO041948 24.0000 85.2000 -1 24.0000 85.2000 TC 25 24.0077 85.2112 1 2 281
1948176N20089 1948 40 NI BB NOT_NAMED 1948-06-26 21:00:00 TS 24.0344 85.1055 main 0 0 P________PP___ IO041948 24.0375 85.1000 -1 24.0375 85.1000 TC 25 24.0303 85.1129 1 2 293
1948176N20089 1948 40 NI BB NOT_NAMED 1948-06-27 00:00:00 TS 24.0813 85.0040 main 0 0 O________OP___ jtwc_io IO041948 24.1000 85.0000 -1 24.1000 85.0000 TC 25 24.0627 85.0081 1 2 289
1948176N20089 1948 40 NI BB NOT_NAMED 1948-06-27 03:00:00 NR 24.1000 84.9000 main 0 __________O___ IO041948 -1 TC 24.1000 84.9000 1 2 281

About IBTrACS Database

This database is a web-friendly format of International Best Track Archive for Climate Stewardship (IBTrACS), a global best track data archive curated by NOAA dating back to 1842.

Updated: 2021-12-03